createdAt,value
2019-06-26T00:00:19.996Z,76.03
2019-06-26T00:01:19.997Z,76.12
2019-06-26T00:02:20.002Z,76.06
2019-06-26T00:03:20.005Z,76.03
2019-06-26T00:04:20.011Z,76.42
2019-06-26T00:05:20.017Z,76.80
2019-06-26T00:06:20.017Z,76.22
2019-06-26T00:07:20.023Z,76.42
2019-06-26T00:08:20.027Z,76.74
2019-06-26T00:09:20.037Z,76.80
2019-06-26T00:10:20.036Z,76.12
2019-06-26T00:11:20.039Z,76.42
2019-06-26T00:12:20.042Z,76.32
2019-06-26T00:13:26.292Z,76.80
2019-06-26T00:14:20.055Z,77.09
2019-06-26T00:15:20.064Z,77.19
2019-06-26T00:16:20.065Z,77.57
2019-06-26T00:17:20.072Z,78.34
2019-06-26T00:18:20.066Z,77.76
2019-06-26T00:19:20.075Z,79.12
2019-06-26T00:20:20.079Z,79.31
2019-06-26T00:21:22.037Z,79.50
2019-06-26T00:22:20.144Z,79.89
2019-06-26T00:23:20.093Z,80.14
2019-06-26T00:24:20.097Z,80.62
2019-06-26T00:25:20.110Z,80.43
2019-06-26T00:26:20.112Z,80.72
2019-06-26T00:27:20.115Z,81.01
2019-06-26T00:28:20.114Z,80.91
2019-06-26T00:29:20.123Z,80.24
2019-06-26T00:30:20.128Z,80.72
2019-06-26T00:31:20.126Z,80.14
2019-06-26T00:32:20.126Z,80.62
2019-06-26T00:33:20.132Z,80.82
2019-06-26T00:34:20.146Z,80.82
2019-06-26T00:35:20.142Z,81.16
2019-06-26T00:36:20.155Z,81.26
2019-06-26T00:37:20.151Z,81.49
2019-06-26T00:38:20.155Z,81.16
2019-06-26T00:39:20.163Z,81.84
2019-06-26T00:40:20.166Z,82.42
2019-06-26T00:41:20.200Z,82.32
2019-06-26T00:42:20.172Z,82.71
2019-06-26T00:43:20.174Z,82.61
2019-06-26T00:44:20.182Z,82.61
2019-06-26T00:45:20.186Z,83.00
2019-06-26T00:46:20.186Z,82.32
2019-06-26T00:47:20.193Z,82.32
2019-06-26T00:48:20.192Z,82.36
2019-06-26T00:49:20.205Z,83.19
2019-06-26T00:50:20.382Z,82.42
2019-06-26T00:51:20.211Z,82.61
2019-06-26T00:52:20.212Z,83.09
2019-06-26T00:53:20.217Z,83.67
2019-06-26T00:54:20.219Z,84.44
2019-06-26T00:55:20.238Z,83.48
2019-06-26T00:56:20.231Z,83.00
2019-06-26T00:57:20.230Z,84.54
2019-06-26T00:58:20.234Z,83.96
2019-06-26T00:59:20.253Z,84.25
2019-06-26T01:00:20.241Z,84.35
2019-06-26T01:01:20.252Z,84.54
2019-06-26T01:02:20.252Z,83.58
2019-06-26T01:03:20.255Z,83.39
2019-06-26T01:04:20.257Z,83.48
2019-06-26T01:05:20.264Z,83.96
2019-06-26T01:06:20.266Z,84.25
2019-06-26T01:07:20.278Z,84.44
2019-06-26T01:08:20.292Z,83.96
2019-06-26T01:09:20.279Z,84.44
2019-06-26T01:10:20.283Z,84.25
2019-06-26T01:11:21.680Z,84.64
2019-06-26T01:12:20.290Z,84.25
2019-06-26T01:13:20.294Z,84.25
2019-06-26T01:14:20.302Z,84.06
2019-06-26T01:15:20.330Z,84.35
2019-06-26T01:16:20.305Z,84.35
2019-06-26T01:17:20.305Z,83.96
2019-06-26T01:18:20.321Z,84.25
2019-06-26T01:19:20.316Z,84.74
2019-06-26T01:20:20.319Z,84.64
2019-06-26T01:21:20.325Z,84.83
2019-06-26T01:22:20.328Z,84.83
2019-06-26T01:23:20.333Z,84.83
2019-06-26T01:24:20.337Z,84.44
2019-06-26T01:25:20.349Z,85.41
2019-06-26T01:26:20.343Z,84.06
2019-06-26T01:27:20.349Z,85.89
2019-06-26T01:28:20.353Z,85.31
2019-06-26T01:29:20.356Z,85.02
2019-06-26T01:30:20.360Z,85.60
2019-06-26T01:31:20.364Z,85.41
2019-06-26T01:32:20.364Z,85.70
2019-06-26T01:33:20.369Z,85.60
2019-06-26T01:34:20.371Z,85.46
2019-06-26T01:35:20.375Z,85.66
2019-06-26T01:36:20.386Z,85.56
2019-06-26T01:37:20.388Z,85.89
2019-06-26T01:38:20.393Z,85.70
2019-06-26T01:39:20.392Z,85.50
2019-06-26T01:40:20.397Z,85.85
2019-06-26T01:41:20.409Z,86.33
2019-06-26T01:42:20.406Z,85.66
2019-06-26T01:43:20.407Z,85.75
2019-06-26T01:44:20.408Z,86.33
2019-06-26T01:45:20.416Z,85.17
2019-06-26T01:46:20.419Z,85.17
2019-06-26T01:47:20.421Z,85.60
2019-06-26T01:48:20.432Z,85.70
2019-06-26T01:49:20.427Z,85.56
2019-06-26T01:50:20.435Z,85.85
2019-06-26T01:51:20.437Z,85.46
2019-06-26T01:52:20.442Z,85.60
2019-06-26T01:53:20.449Z,85.99
2019-06-26T01:54:20.451Z,85.66
2019-06-26T01:55:20.452Z,85.46
2019-06-26T01:56:20.458Z,85.70
2019-06-26T01:57:20.462Z,85.99
2019-06-26T01:58:20.464Z,85.80
2019-06-26T01:59:20.475Z,85.50
2019-06-26T02:00:20.472Z,85.50
2019-06-26T02:01:20.473Z,85.60
2019-06-26T02:02:20.479Z,85.70
2019-06-26T02:03:20.486Z,85.41
2019-06-26T02:04:20.481Z,85.89
2019-06-26T02:05:20.485Z,85.22
2019-06-26T02:06:20.496Z,85.02
2019-06-26T02:07:20.500Z,85.89
2019-06-26T02:08:20.513Z,85.60
2019-06-26T02:09:20.520Z,85.50
2019-06-26T02:10:20.507Z,85.50
2019-06-26T02:11:20.515Z,86.47
2019-06-26T02:12:20.513Z,86.38
2019-06-26T02:13:20.517Z,86.28
2019-06-26T02:14:30.368Z,86.62
2019-06-26T02:15:20.525Z,87.44
2019-06-26T02:16:20.529Z,87.40
2019-06-26T02:17:20.534Z,87.20
2019-06-26T02:18:20.535Z,88.26
2019-06-26T02:19:20.539Z,87.88
2019-06-26T02:20:20.546Z,87.97
2019-06-26T02:21:20.543Z,87.78
2019-06-26T02:22:20.548Z,88.55
2019-06-26T02:23:20.549Z,88.65
2019-06-26T02:24:20.557Z,88.45
2019-06-26T02:25:20.559Z,89.51
2019-06-26T02:26:20.566Z,88.93
2019-06-26T02:27:20.567Z,89.57
2019-06-26T02:28:20.566Z,89.32
2019-06-26T02:29:20.572Z,90.05
2019-06-26T02:30:20.586Z,89.67
2019-06-26T02:31:20.585Z,89.86
2019-06-26T02:32:20.608Z,89.86
2019-06-26T02:33:20.587Z,91.02
2019-06-26T02:34:20.593Z,91.11
2019-06-26T02:35:20.595Z,90.82
2019-06-26T02:36:20.597Z,91.11
2019-06-26T02:37:20.601Z,90.63
2019-06-26T02:38:20.613Z,90.72
2019-06-26T02:39:20.610Z,91.02
2019-06-26T02:40:20.613Z,90.92
2019-06-26T02:41:20.615Z,91.02
2019-06-26T02:42:20.620Z,90.92
2019-06-26T02:43:20.625Z,90.82
2019-06-26T02:44:20.623Z,90.44
2019-06-26T02:45:20.629Z,90.44
2019-06-26T02:46:20.632Z,90.05
2019-06-26T02:47:21.062Z,90.24
2019-06-26T02:48:20.638Z,90.05
2019-06-26T02:49:20.642Z,90.24
2019-06-26T02:50:20.647Z,89.95
2019-06-26T02:51:20.650Z,90.44
2019-06-26T02:52:20.657Z,89.67
2019-06-26T02:53:20.657Z,89.95
2019-06-26T02:54:20.658Z,90.05
2019-06-26T02:55:20.662Z,90.19
2019-06-26T02:56:20.671Z,90.24
2019-06-26T02:57:20.661Z,90.77
2019-06-26T02:58:20.668Z,90.09
2019-06-26T02:59:20.681Z,90.09
2019-06-26T03:00:20.680Z,90.19
2019-06-26T03:01:20.685Z,90.48
2019-06-26T03:02:20.686Z,90.67
2019-06-26T03:03:20.693Z,90.38
2019-06-26T03:04:20.700Z,90.67
2019-06-26T03:05:20.695Z,90.48
2019-06-26T03:06:20.698Z,90.48
2019-06-26T03:07:20.700Z,91.06
2019-06-26T03:08:20.717Z,91.25
2019-06-26T03:09:20.710Z,91.35
2019-06-26T03:10:20.712Z,90.67
2019-06-26T03:11:20.716Z,90.77
2019-06-26T03:12:20.716Z,91.44
2019-06-26T03:13:20.724Z,91.35
2019-06-26T03:14:20.735Z,91.83
2019-06-26T03:15:20.729Z,91.74
2019-06-26T03:16:20.730Z,91.06
2019-06-26T03:17:20.732Z,91.06
2019-06-26T03:18:20.740Z,91.25
2019-06-26T03:19:20.741Z,91.93
2019-06-26T03:20:20.744Z,92.50
2019-06-26T03:21:20.751Z,92.41
2019-06-26T03:22:20.755Z,92.22
2019-06-26T03:23:20.755Z,92.22
2019-06-26T03:24:20.755Z,92.22
2019-06-26T03:25:20.771Z,92.12
2019-06-26T03:26:20.763Z,92.70
2019-06-26T03:27:20.763Z,92.12
2019-06-26T03:28:20.771Z,92.12
2019-06-26T03:29:20.771Z,91.93
2019-06-26T03:30:20.781Z,92.60
2019-06-26T03:31:20.786Z,92.41
2019-06-26T03:32:20.784Z,91.83
2019-06-26T03:33:20.787Z,92.70
2019-06-26T03:34:20.787Z,92.32
2019-06-26T03:35:20.794Z,92.60
2019-06-26T03:36:20.799Z,92.70
2019-06-26T03:37:20.796Z,92.41
2019-06-26T03:38:20.799Z,92.41
2019-06-26T03:39:20.814Z,93.37
2019-06-26T03:40:20.806Z,93.28
2019-06-26T03:41:20.810Z,92.99
2019-06-26T03:42:20.816Z,93.28
2019-06-26T03:43:20.820Z,93.18
2019-06-26T03:44:20.829Z,93.28
2019-06-26T03:45:25.926Z,93.47
2019-06-26T03:46:20.836Z,92.89
2019-06-26T03:47:20.837Z,92.89
2019-06-26T03:48:20.836Z,93.37
2019-06-26T03:49:20.837Z,93.37
2019-06-26T03:50:20.850Z,93.47
2019-06-26T03:51:20.887Z,93.37
2019-06-26T03:52:20.853Z,92.74
2019-06-26T03:53:20.858Z,93.37
2019-06-26T03:54:20.857Z,93.47
2019-06-26T03:55:20.862Z,93.42
2019-06-26T03:56:20.863Z,93.62
2019-06-26T03:57:20.866Z,93.62
2019-06-26T03:58:20.872Z,93.42
2019-06-26T03:59:20.879Z,93.32
2019-06-26T04:00:20.880Z,93.42
2019-06-26T04:01:20.882Z,93.52
2019-06-26T04:02:20.887Z,93.13
2019-06-26T04:03:20.883Z,93.42
2019-06-26T04:04:20.887Z,93.04
2019-06-26T04:05:20.919Z,93.32
2019-06-26T04:06:20.893Z,92.65
2019-06-26T04:07:20.897Z,93.04
2019-06-26T04:08:20.901Z,93.42
2019-06-26T04:09:20.906Z,93.62
2019-06-26T04:10:20.914Z,93.32
2019-06-26T04:11:20.916Z,93.52
2019-06-26T04:12:20.920Z,93.42
2019-06-26T04:13:20.917Z,93.90
2019-06-26T04:14:20.922Z,93.62
2019-06-26T04:15:20.926Z,93.62
2019-06-26T04:16:20.940Z,93.32
2019-06-26T04:17:20.934Z,93.52
2019-06-26T04:18:21.048Z,93.62
2019-06-26T04:19:20.940Z,93.32
2019-06-26T04:20:20.945Z,93.08
2019-06-26T04:21:20.976Z,91.68
2019-06-26T04:22:20.960Z,91.92
2019-06-26T04:23:20.969Z,92.11
2019-06-26T04:24:20.953Z,91.83
2019-06-26T04:25:20.955Z,91.44
2019-06-26T04:26:20.961Z,91.25
2019-06-26T04:27:20.964Z,92.50
2019-06-26T04:28:20.985Z,92.41
2019-06-26T04:29:20.973Z,92.21
2019-06-26T04:30:20.996Z,92.31
2019-06-26T04:31:20.988Z,92.60
2019-06-26T04:32:20.988Z,92.55
2019-06-26T04:33:20.985Z,91.49
2019-06-26T04:34:20.992Z,91.87
2019-06-26T04:35:21.132Z,92.45
2019-06-26T04:36:20.994Z,91.67
2019-06-26T04:37:21.000Z,92.25
2019-06-26T04:38:21.004Z,92.45
2019-06-26T04:39:21.007Z,92.16
2019-06-26T04:40:21.009Z,92.35
2019-06-26T04:41:21.013Z,92.65
2019-06-26T04:42:21.028Z,92.45
2019-06-26T04:43:21.022Z,92.35
2019-06-26T04:44:21.027Z,92.35
2019-06-26T04:45:21.028Z,92.45
2019-06-26T04:46:21.036Z,92.74
2019-06-26T04:47:21.038Z,92.74
2019-06-26T04:48:21.046Z,92.79
2019-06-26T04:49:21.045Z,93.46
2019-06-26T04:50:21.054Z,92.88
2019-06-26T04:51:21.053Z,92.40
2019-06-26T04:52:21.057Z,92.59
2019-06-26T04:53:21.061Z,93.66
2019-06-26T04:54:21.064Z,93.56
2019-06-26T04:55:21.068Z,92.98
2019-06-26T04:56:21.074Z,93.08
2019-06-26T04:57:21.073Z,92.69
2019-06-26T04:58:21.078Z,93.46
2019-06-26T04:59:21.080Z,92.98
2019-06-26T05:00:22.015Z,92.69
2019-06-26T05:01:21.101Z,92.54
2019-06-26T05:02:21.092Z,93.27
2019-06-26T05:03:21.095Z,93.90
2019-06-26T05:04:21.107Z,93.51
2019-06-26T05:05:21.101Z,93.80
2019-06-26T05:06:21.128Z,94.48
2019-06-26T05:07:21.112Z,94.28
2019-06-26T05:08:21.116Z,94.38
2019-06-26T05:09:21.249Z,94.57
2019-06-26T05:10:21.123Z,93.32
2019-06-26T05:11:21.126Z,93.70
2019-06-26T05:12:21.128Z,92.93
2019-06-26T05:13:21.132Z,94.18
2019-06-26T05:14:21.143Z,93.22
2019-06-26T05:15:21.155Z,93.70
2019-06-26T05:16:21.145Z,93.26
2019-06-26T05:17:21.150Z,92.68
2019-06-26T05:18:21.154Z,94.33
2019-06-26T05:19:21.169Z,93.85
2019-06-26T05:20:21.167Z,93.85
2019-06-26T05:21:21.165Z,93.36
2019-06-26T05:22:21.171Z,92.97
2019-06-26T05:23:21.173Z,92.97
2019-06-26T05:24:21.178Z,92.88
2019-06-26T05:25:21.186Z,93.94
2019-06-26T05:26:21.187Z,93.65
2019-06-26T05:27:21.188Z,93.65
2019-06-26T05:28:21.196Z,92.83
2019-06-26T05:29:21.197Z,92.63
2019-06-26T05:30:21.205Z,92.63
2019-06-26T05:31:21.208Z,91.76
2019-06-26T05:32:21.213Z,92.93
2019-06-26T05:33:21.212Z,93.12
2019-06-26T05:34:21.217Z,93.31
2019-06-26T05:35:21.221Z,92.34
2019-06-26T05:36:21.225Z,93.02
2019-06-26T05:37:21.229Z,92.77
2019-06-26T05:38:21.235Z,92.58
2019-06-26T05:39:21.242Z,92.93
2019-06-26T05:40:21.252Z,92.29
2019-06-26T05:41:21.250Z,92.97
2019-06-26T05:42:21.255Z,92.29
2019-06-26T05:43:21.266Z,91.71
2019-06-26T05:44:21.262Z,92.29
2019-06-26T05:45:21.266Z,92.68
2019-06-26T05:46:30.715Z,91.52
2019-06-26T05:47:22.091Z,92.33
2019-06-26T05:48:21.285Z,91.56
2019-06-26T05:49:21.286Z,91.56
2019-06-26T05:50:21.287Z,91.37
2019-06-26T05:51:21.297Z,90.98
2019-06-26T05:52:21.306Z,90.59
2019-06-26T05:53:21.305Z,90.50
2019-06-26T05:54:21.306Z,90.73
2019-06-26T05:55:21.309Z,90.59
2019-06-26T05:56:21.335Z,90.78
2019-06-26T05:57:21.326Z,90.54
2019-06-26T05:58:21.323Z,90.54
2019-06-26T05:59:21.329Z,89.86
2019-06-26T06:00:21.334Z,90.44
2019-06-26T06:01:21.410Z,91.61
2019-06-26T06:02:21.349Z,90.73
2019-06-26T06:03:21.408Z,90.54
2019-06-26T06:04:21.355Z,90.34
2019-06-26T06:05:21.397Z,90.34
2019-06-26T06:06:21.360Z,89.76
2019-06-26T06:07:21.367Z,90.20
2019-06-26T06:08:21.370Z,90.30
2019-06-26T06:09:21.376Z,88.84
2019-06-26T06:10:21.380Z,89.23
2019-06-26T06:11:21.397Z,88.93
2019-06-26T06:12:21.390Z,89.90
2019-06-26T06:13:21.394Z,88.65
2019-06-26T06:14:21.400Z,88.65
2019-06-26T06:15:21.403Z,88.65
2019-06-26T06:16:21.409Z,87.68
2019-06-26T06:17:21.417Z,87.68
2019-06-26T06:18:21.424Z,88.69
2019-06-26T06:19:21.428Z,87.72
2019-06-26T06:20:21.435Z,88.30
2019-06-26T06:21:21.433Z,87.23
2019-06-26T06:22:21.441Z,88.10
2019-06-26T06:23:21.448Z,88.34
2019-06-26T06:24:21.447Z,87.18
2019-06-26T06:25:21.460Z,87.76
2019-06-26T06:26:21.465Z,85.92
2019-06-26T06:27:21.463Z,85.92
2019-06-26T06:28:21.500Z,86.40
2019-06-26T06:29:21.478Z,85.92
2019-06-26T06:30:21.481Z,85.53
2019-06-26T06:31:21.488Z,86.40
2019-06-26T06:32:21.495Z,86.50
2019-06-26T06:33:21.508Z,86.15
2019-06-26T06:34:21.505Z,84.79
2019-06-26T06:35:21.509Z,85.57
2019-06-26T06:36:21.515Z,85.18
2019-06-26T06:37:21.522Z,84.99
2019-06-26T06:38:21.526Z,84.70
2019-06-26T06:39:21.530Z,84.89
2019-06-26T06:40:21.539Z,84.50
2019-06-26T06:41:21.541Z,85.22
2019-06-26T06:42:21.551Z,84.16
2019-06-26T06:43:21.550Z,84.64
2019-06-26T06:44:21.559Z,84.16
2019-06-26T06:45:21.563Z,83.86
2019-06-26T06:46:21.578Z,84.45
2019-06-26T06:47:21.582Z,84.06
2019-06-26T06:48:21.582Z,83.96
2019-06-26T06:49:21.587Z,84.45
2019-06-26T06:50:21.593Z,83.42
2019-06-26T06:51:21.605Z,84.10
2019-06-26T06:52:21.611Z,83.81
2019-06-26T06:53:21.616Z,83.81
2019-06-26T06:54:21.627Z,83.03
2019-06-26T06:55:21.633Z,83.51
2019-06-26T06:56:21.634Z,83.17
2019-06-26T06:57:21.642Z,82.20
2019-06-26T06:58:21.645Z,81.61
2019-06-26T06:59:21.648Z,80.83
2019-06-26T07:00:21.656Z,81.12
2019-06-26T07:01:21.663Z,80.35
2019-06-26T07:02:21.668Z,79.80
2019-06-26T07:03:21.675Z,79.61
2019-06-26T07:04:21.674Z,80.48
2019-06-26T07:05:21.691Z,81.46
2019-06-26T07:06:21.694Z,80.19
2019-06-26T07:07:21.701Z,81.46
2019-06-26T07:08:21.705Z,79.90
2019-06-26T07:09:21.717Z,79.25
2019-06-26T07:10:21.720Z,79.45
2019-06-26T07:11:21.727Z,79.06
2019-06-26T07:12:21.734Z,79.94
2019-06-26T07:13:21.741Z,80.04
2019-06-26T07:14:21.743Z,78.19
2019-06-26T07:15:21.765Z,79.10
2019-06-26T07:16:21.755Z,78.77
2019-06-26T07:17:21.764Z,78.52
2019-06-26T07:18:21.766Z,78.61
2019-06-26T07:19:21.774Z,78.13
2019-06-26T07:20:21.785Z,76.96
2019-06-26T07:21:21.794Z,78.52
2019-06-26T07:22:21.797Z,77.15
2019-06-26T07:23:21.810Z,77.78
2019-06-26T07:24:21.814Z,76.21
2019-06-26T07:25:21.826Z,76.51
2019-06-26T07:26:21.831Z,75.63
2019-06-26T07:27:21.836Z,77.00
2019-06-26T07:28:21.915Z,77.23
2019-06-26T07:29:21.851Z,77.19
2019-06-26T07:30:22.054Z,77.13
2019-06-26T07:31:21.868Z,75.76
2019-06-26T07:32:21.870Z,75.76
2019-06-26T07:33:21.877Z,75.18
2019-06-26T07:34:21.882Z,74.79
2019-06-26T07:35:21.891Z,74.83
2019-06-26T07:36:21.901Z,75.70
2019-06-26T07:37:21.906Z,77.07
2019-06-26T07:38:21.948Z,74.48
2019-06-26T07:39:21.927Z,75.05
2019-06-26T07:40:21.930Z,75.15
2019-06-26T07:41:21.937Z,73.69
2019-06-26T07:42:21.946Z,74.28
2019-06-26T07:43:21.954Z,72.42
2019-06-26T07:44:21.963Z,73.05
2019-06-26T07:45:24.158Z,71.84
2019-06-26T07:46:21.977Z,72.66
2019-06-26T07:47:25.179Z,74.12
2019-06-26T07:48:22.038Z,73.14
2019-06-26T07:49:22.004Z,73.14
2019-06-26T07:50:22.010Z,72.75
2019-06-26T07:51:22.021Z,72.27
2019-06-26T07:52:22.020Z,71.12
2019-06-26T07:53:22.032Z,70.83
2019-06-26T07:54:22.042Z,70.64
2019-06-26T07:55:22.050Z,71.71
2019-06-26T07:56:22.055Z,70.44
2019-06-26T07:57:22.065Z,68.98
2019-06-26T07:58:22.100Z,69.27
2019-06-26T07:59:22.088Z,69.31
2019-06-26T08:00:22.089Z,69.89
2019-06-26T08:01:22.104Z,69.31
2019-06-26T08:02:22.108Z,68.71
2019-06-26T08:03:22.152Z,67.93
2019-06-26T08:04:22.186Z,68.26
2019-06-26T08:05:22.133Z,67.64
2019-06-26T08:06:22.141Z,69.53
2019-06-26T08:07:22.150Z,68.85
2019-06-26T08:08:22.160Z,68.36
2019-06-26T08:09:22.226Z,68.16
2019-06-26T08:10:22.174Z,67.19
2019-06-26T08:11:22.185Z,66.30
2019-06-26T08:12:22.202Z,66.30
2019-06-26T08:13:22.200Z,66.83
2019-06-26T08:14:22.211Z,67.90
2019-06-26T08:15:22.218Z,67.02
2019-06-26T08:16:22.231Z,65.95
2019-06-26T08:17:22.237Z,65.39
2019-06-26T08:18:22.253Z,64.77
2019-06-26T08:19:22.254Z,65.36
2019-06-26T08:20:22.264Z,66.08
2019-06-26T08:21:22.279Z,64.31
2019-06-26T08:22:22.297Z,64.22
2019-06-26T08:23:22.293Z,64.02
2019-06-26T08:24:22.310Z,64.70
2019-06-26T08:25:22.312Z,63.43
2019-06-26T08:26:22.322Z,63.63
2019-06-26T08:27:22.333Z,64.15
2019-06-26T08:28:22.340Z,63.66
2019-06-26T08:29:22.349Z,63.76
2019-06-26T08:30:22.369Z,63.76
2019-06-26T08:31:22.372Z,63.59
2019-06-26T08:32:25.842Z,62.12
2019-06-26T08:33:22.388Z,62.71
2019-06-26T08:34:22.401Z,62.71
2019-06-26T08:35:22.412Z,63.69
2019-06-26T08:36:22.431Z,63.49
2019-06-26T08:37:22.454Z,62.25
2019-06-26T08:38:22.440Z,63.23
2019-06-26T08:39:22.451Z,63.23
2019-06-26T08:40:22.462Z,62.54
2019-06-26T08:41:22.466Z,61.99
2019-06-26T08:42:22.477Z,59.63
2019-06-26T08:43:22.492Z,59.63
2019-06-26T08:44:22.589Z,59.73
2019-06-26T08:45:22.508Z,60.22
2019-06-26T08:46:22.520Z,60.61
2019-06-26T08:47:22.601Z,60.91
2019-06-26T08:48:38.327Z,60.32
2019-06-26T08:49:26.189Z,60.03
2019-06-26T08:50:22.563Z,59.63
2019-06-26T08:51:22.567Z,59.44
2019-06-26T08:52:22.579Z,59.76
2019-06-26T08:53:22.591Z,58.16
2019-06-26T08:54:22.608Z,58.19
2019-06-26T08:55:22.629Z,58.09
2019-06-26T08:56:22.630Z,58.97
2019-06-26T08:57:22.632Z,59.66
2019-06-26T08:58:22.645Z,61.07
2019-06-26T08:59:22.651Z,59.50
2019-06-26T09:00:22.666Z,59.20
2019-06-26T09:01:22.689Z,59.03
2019-06-26T09:02:22.691Z,58.84
2019-06-26T09:03:22.705Z,60.90
2019-06-26T09:04:22.704Z,59.62
2019-06-26T09:05:22.715Z,58.86
2019-06-26T09:06:22.727Z,57.66
2019-06-26T09:07:22.751Z,57.29
2019-06-26T09:08:22.912Z,57.46
2019-06-26T09:09:22.761Z,56.90
2019-06-26T09:10:22.837Z,57.29
2019-06-26T09:11:22.783Z,58.57
2019-06-26T09:12:22.791Z,59.84
2019-06-26T09:13:22.805Z,57.98
2019-06-26T09:14:22.815Z,58.40
2019-06-26T09:15:22.825Z,55.85
2019-06-26T09:16:22.841Z,55.55
2019-06-26T09:17:22.850Z,57.22
2019-06-26T09:18:34.902Z,55.72
2019-06-26T09:19:22.874Z,57.32
2019-06-26T09:20:22.884Z,58.30
2019-06-26T09:21:22.899Z,59.78
2019-06-26T09:22:22.906Z,56.85
2019-06-26T09:23:22.922Z,57.35
2019-06-26T09:24:22.930Z,54.86
2019-06-26T09:25:22.946Z,55.87
2019-06-26T09:26:22.947Z,56.85
2019-06-26T09:27:22.961Z,54.79
2019-06-26T09:28:22.975Z,55.87
2019-06-26T09:29:24.113Z,55.58
2019-06-26T09:30:23.003Z,54.89
2019-06-26T09:31:23.011Z,56.85
2019-06-26T09:32:23.023Z,55.68
2019-06-26T09:33:23.031Z,57.28
2019-06-26T09:34:23.048Z,55.60
2019-06-26T09:35:23.057Z,54.22
2019-06-26T09:36:23.079Z,54.03
2019-06-26T09:37:23.084Z,53.74
2019-06-26T09:38:23.093Z,52.75
2019-06-26T09:39:23.115Z,53.54
2019-06-26T09:40:23.118Z,54.52
2019-06-26T09:41:23.128Z,53.93
2019-06-26T09:42:23.171Z,52.58
2019-06-26T09:43:23.156Z,52.65
2019-06-26T09:44:23.163Z,52.45
2019-06-26T09:45:23.176Z,51.79
2019-06-26T09:46:23.187Z,52.06
2019-06-26T09:47:23.199Z,52.06
2019-06-26T09:48:23.211Z,50.39
2019-06-26T09:49:23.227Z,52.65
2019-06-26T09:50:23.240Z,50.29
2019-06-26T09:51:23.255Z,50.09
2019-06-26T09:52:23.283Z,50.68
2019-06-26T09:53:23.276Z,50.81
2019-06-26T09:54:23.283Z,50.12
2019-06-26T09:55:23.301Z,50.71
2019-06-26T09:56:23.317Z,49.62
2019-06-26T09:57:23.324Z,49.73
2019-06-26T09:58:23.336Z,49.52
2019-06-26T09:59:23.355Z,50.02
2019-06-26T10:00:23.357Z,50.81
2019-06-26T10:01:23.372Z,51.99
2019-06-26T10:02:23.385Z,51.99
2019-06-26T10:03:23.395Z,50.24
2019-06-26T10:04:23.409Z,50.24
2019-06-26T10:05:23.431Z,49.73
2019-06-26T10:06:23.430Z,50.83
2019-06-26T10:07:23.446Z,51.12
2019-06-26T10:08:23.462Z,50.63
2019-06-26T10:09:23.474Z,50.63
2019-06-26T10:10:23.483Z,49.38
2019-06-26T10:11:23.497Z,49.18
2019-06-26T10:12:23.506Z,52.92
2019-06-26T10:13:23.520Z,49.87
2019-06-26T10:14:23.536Z,49.38
2019-06-26T10:15:23.549Z,47.90
2019-06-26T10:16:23.559Z,48.49
2019-06-26T10:17:23.574Z,50.09
2019-06-26T10:18:23.585Z,51.47
2019-06-26T10:19:23.601Z,49.20
2019-06-26T10:20:23.618Z,49.92
2019-06-26T10:21:23.827Z,49.72
2019-06-26T10:22:23.641Z,50.81
2019-06-26T10:23:23.651Z,49.30
2019-06-26T10:24:23.766Z,48.74
2019-06-26T10:25:23.682Z,50.02
2019-06-26T10:26:23.692Z,49.43
2019-06-26T10:27:23.702Z,49.69
2019-06-26T10:28:23.724Z,49.65
2019-06-26T10:29:23.730Z,47.34
2019-06-26T10:30:23.746Z,46.33
2019-06-26T10:31:23.755Z,46.31
2019-06-26T10:32:23.770Z,44.70
2019-06-26T10:33:23.970Z,41.58
2019-06-26T10:34:23.797Z,41.50
2019-06-26T10:35:23.811Z,40.36
2019-06-26T10:36:24.766Z,39.88
2019-06-26T10:37:23.845Z,38.40
2019-06-26T10:38:23.858Z,39.54
2019-06-26T10:39:23.872Z,37.58
2019-06-26T10:40:23.893Z,36.78
2019-06-26T10:41:23.913Z,36.19
2019-06-26T10:42:23.928Z,36.41
2019-06-26T10:43:23.944Z,36.55
2019-06-26T10:44:23.969Z,36.07
2019-06-26T10:45:23.980Z,36.20
2019-06-26T10:46:24.001Z,34.63
2019-06-26T10:47:24.016Z,34.04
2019-06-26T10:48:24.047Z,34.24
2019-06-26T10:49:27.423Z,34.12
2019-06-26T10:50:24.086Z,33.91
2019-06-26T10:51:24.096Z,34.08
2019-06-26T10:52:24.119Z,34.96
2019-06-26T10:53:24.141Z,36.76
2019-06-26T10:54:24.164Z,35.69
2019-06-26T10:55:24.180Z,36.13
2019-06-26T10:56:24.202Z,34.06
2019-06-26T10:57:24.228Z,32.76
2019-06-26T10:58:24.252Z,34.19
2019-06-26T10:59:24.280Z,34.02
2019-06-26T11:00:24.296Z,32.23
2019-06-26T11:01:24.326Z,32.86
2019-06-26T11:02:24.350Z,31.42
2019-06-26T11:03:24.365Z,31.40
2019-06-26T11:04:24.390Z,31.40
2019-06-26T11:05:24.461Z,32.91
2019-06-26T11:06:24.440Z,33.72
2019-06-26T11:07:24.471Z,32.81
2019-06-26T11:08:24.492Z,33.35
2019-06-26T11:09:24.520Z,33.03
2019-06-26T11:10:24.539Z,34.79
2019-06-26T11:11:24.574Z,34.56
2019-06-26T11:12:24.593Z,33.59
2019-06-26T11:13:24.619Z,34.29
2019-06-26T11:14:24.651Z,34.42
2019-06-26T11:15:24.672Z,33.92
2019-06-26T11:16:24.695Z,33.49
2019-06-26T11:17:24.728Z,33.91
2019-06-26T11:18:24.747Z,33.71
2019-06-26T11:19:24.772Z,33.09
2019-06-26T11:20:24.798Z,34.64
2019-06-26T11:21:24.829Z,35.13
2019-06-26T11:22:24.870Z,35.36
2019-06-26T11:23:24.878Z,35.69
2019-06-26T11:24:24.906Z,32.59
2019-06-26T11:25:24.928Z,33.89
2019-06-26T11:26:24.962Z,33.49
2019-06-26T11:27:24.992Z,33.81
2019-06-26T11:28:25.006Z,34.64
2019-06-26T11:29:25.036Z,33.15
2019-06-26T11:30:25.062Z,33.07
2019-06-26T11:31:25.091Z,32.68
2019-06-26T11:32:25.129Z,33.62
2019-06-26T11:33:25.173Z,30.83
2019-06-26T11:34:25.165Z,30.07
2019-06-26T11:35:25.195Z,32.12
2019-06-26T11:36:25.225Z,31.76
2019-06-26T11:37:25.248Z,32.35
2019-06-26T11:38:25.269Z,34.14
2019-06-26T11:39:25.303Z,34.28
2019-06-26T11:40:25.323Z,34.51
2019-06-26T11:41:25.363Z,34.34
2019-06-26T11:42:25.381Z,34.33
2019-06-26T11:43:25.401Z,31.68
2019-06-26T11:44:25.429Z,32.56
2019-06-26T11:45:25.461Z,32.51
2019-06-26T11:46:25.481Z,33.50
2019-06-26T11:47:25.515Z,34.03
2019-06-26T11:48:25.534Z,34.24
2019-06-26T11:49:25.571Z,32.46
2019-06-26T11:50:25.586Z,33.69
2019-06-26T11:51:25.611Z,32.42
2019-06-26T11:52:25.647Z,31.62
2019-06-26T11:53:25.673Z,31.03
2019-06-26T11:54:25.706Z,30.74
2019-06-26T11:55:25.717Z,30.64
2019-06-26T11:56:25.744Z,31.60
2019-06-26T11:57:25.772Z,31.21
2019-06-26T11:58:25.805Z,30.81
2019-06-26T11:59:25.828Z,32.84
2019-06-26T12:00:25.858Z,31.77
2019-06-26T12:01:25.891Z,30.28
2019-06-26T12:02:25.924Z,28.77
2019-06-26T12:03:25.938Z,30.28
2019-06-26T12:04:25.990Z,29.79
2019-06-26T12:05:25.996Z,29.10
2019-06-26T12:06:26.029Z,28.90
2019-06-26T12:07:26.057Z,28.18
2019-06-26T12:08:26.077Z,29.68
2019-06-26T12:09:26.103Z,29.66
2019-06-26T12:10:26.134Z,29.62
2019-06-26T12:11:26.170Z,30.21
2019-06-26T12:12:26.192Z,31.57
2019-06-26T12:13:26.216Z,31.84
2019-06-26T12:14:26.249Z,32.38
2019-06-26T12:15:26.276Z,33.91
2019-06-26T12:16:26.298Z,34.03
2019-06-26T12:17:26.328Z,33.26
2019-06-26T12:18:26.416Z,33.89
2019-06-26T12:19:26.379Z,32.97
2019-06-26T12:20:26.517Z,32.62
2019-06-26T12:21:26.435Z,34.19
2019-06-26T12:22:26.460Z,33.48
2019-06-26T12:23:26.486Z,34.25
2019-06-26T12:24:26.818Z,33.65
2019-06-26T12:25:26.539Z,34.09
2019-06-26T12:26:26.559Z,34.96
2019-06-26T12:27:26.591Z,36.04
2019-06-26T12:28:26.612Z,36.12
2019-06-26T12:29:26.641Z,36.62
2019-06-26T12:30:26.659Z,37.32
2019-06-26T12:31:26.680Z,37.21
2019-06-26T12:32:26.706Z,36.24
2019-06-26T12:33:26.739Z,36.64
2019-06-26T12:34:26.754Z,36.42
2019-06-26T12:35:26.785Z,37.23
2019-06-26T12:36:26.809Z,37.32
2019-06-26T12:37:36.937Z,38.71
2019-06-26T12:38:26.845Z,38.31
2019-06-26T12:39:26.868Z,37.32
2019-06-26T12:40:30.773Z,38.01
2019-06-26T12:41:26.916Z,37.40
2019-06-26T12:42:26.933Z,37.30
2019-06-26T12:43:26.958Z,38.18
2019-06-26T12:44:26.979Z,38.26
2019-06-26T12:45:26.997Z,40.05
2019-06-26T12:46:27.020Z,40.05
2019-06-26T12:47:27.042Z,41.55
2019-06-26T12:48:27.066Z,39.69
2019-06-26T12:49:27.082Z,39.18
2019-06-26T12:50:35.467Z,39.98
2019-06-26T12:51:27.315Z,38.69
2019-06-26T12:52:27.150Z,38.79